sensor_id;sensor_type;location;lat;lon;timestamp;P1;durP1;ratioP1;P2;durP2;ratioP2
789;SDS011;378;48.844;9.156;2022-12-11T00:00:02;35.93;;;16.10;;
789;SDS011;378;48.844;9.156;2022-12-11T00:02:29;38.60;;;16.80;;
789;SDS011;378;48.844;9.156;2022-12-11T00:04:56;37.90;;;16.67;;
789;SDS011;378;48.844;9.156;2022-12-11T00:07:23;41.85;;;18.33;;
789;SDS011;378;48.844;9.156;2022-12-11T00:09:50;43.07;;;17.83;;
789;SDS011;378;48.844;9.156;2022-12-11T00:12:18;39.03;;;16.33;;
789;SDS011;378;48.844;9.156;2022-12-11T00:14:45;37.03;;;17.03;;
789;SDS011;378;48.844;9.156;2022-12-11T00:17:12;40.07;;;17.27;;
789;SDS011;378;48.844;9.156;2022-12-11T00:19:39;40.67;;;17.47;;
789;SDS011;378;48.844;9.156;2022-12-11T00:22:05;40.20;;;16.60;;
789;SDS011;378;48.844;9.156;2022-12-11T00:24:33;39.53;;;17.13;;
789;SDS011;378;48.844;9.156;2022-12-11T00:26:59;44.53;;;18.33;;
789;SDS011;378;48.844;9.156;2022-12-11T00:29:28;44.50;;;18.13;;
789;SDS011;378;48.844;9.156;2022-12-11T00:31:55;42.83;;;18.47;;
789;SDS011;378;48.844;9.156;2022-12-11T00:34:21;44.97;;;17.30;;
789;SDS011;378;48.844;9.156;2022-12-11T00:36:48;40.03;;;18.83;;
789;SDS011;378;48.844;9.156;2022-12-11T00:39:15;44.57;;;18.50;;
789;SDS011;378;48.844;9.156;2022-12-11T00:41:42;43.10;;;18.83;;
789;SDS011;378;48.844;9.156;2022-12-11T00:44:09;37.37;;;17.50;;
789;SDS011;378;48.844;9.156;2022-12-11T00:46:37;39.53;;;17.20;;
789;SDS011;378;48.844;9.156;2022-12-11T00:49:04;40.30;;;17.30;;
789;SDS011;378;48.844;9.156;2022-12-11T00:51:31;38.57;;;17.73;;
789;SDS011;378;48.844;9.156;2022-12-11T00:53:57;39.20;;;17.10;;
789;SDS011;378;48.844;9.156;2022-12-11T00:56:24;36.53;;;15.77;;
789;SDS011;378;48.844;9.156;2022-12-11T00:58:51;34.07;;;15.37;;
789;SDS011;378;48.844;9.156;2022-12-11T01:01:19;33.03;;;15.40;;
789;SDS011;378;48.844;9.156;2022-12-11T01:03:51;36.47;;;15.83;;
789;SDS011;378;48.844;9.156;2022-12-11T01:06:19;36.77;;;15.17;;
789;SDS011;378;48.844;9.156;2022-12-11T01:08:47;36.67;;;15.87;;
789;SDS011;378;48.844;9.156;2022-12-11T01:11:35;36.07;;;16.20;;
789;SDS011;378;48.844;9.156;2022-12-11T01:14:01;35.23;;;15.87;;
789;SDS011;378;48.844;9.156;2022-12-11T01:16:28;33.13;;;15.87;;
789;SDS011;378;48.844;9.156;2022-12-11T01:18:56;43.03;;;22.30;;
789;SDS011;378;48.844;9.156;2022-12-11T01:21:23;37.57;;;17.93;;
789;SDS011;378;48.844;9.156;2022-12-11T01:23:51;34.53;;;16.47;;
789;SDS011;378;48.844;9.156;2022-12-11T01:26:17;37.87;;;16.00;;
789;SDS011;378;48.844;9.156;2022-12-11T01:28:47;33.63;;;15.80;;
789;SDS011;378;48.844;9.156;2022-12-11T01:31:15;37.60;;;16.23;;
789;SDS011;378;48.844;9.156;2022-12-11T01:33:43;35.77;;;16.10;;
789;SDS011;378;48.844;9.156;2022-12-11T01:36:14;32.60;;;15.33;;
789;SDS011;378;48.844;9.156;2022-12-11T01:38:43;34.47;;;14.80;;
789;SDS011;378;48.844;9.156;2022-12-11T01:41:10;33.37;;;14.33;;
789;SDS011;378;48.844;9.156;2022-12-11T01:46:23;31.53;;;15.50;;
789;SDS011;378;48.844;9.156;2022-12-11T01:48:50;34.80;;;15.80;;
789;SDS011;378;48.844;9.156;2022-12-11T01:51:19;34.17;;;15.43;;
789;SDS011;378;48.844;9.156;2022-12-11T01:53:47;36.73;;;16.03;;
789;SDS011;378;48.844;9.156;2022-12-11T01:56:18;41.65;;;22.25;;
789;SDS011;378;48.844;9.156;2022-12-11T01:58:46;38.97;;;18.57;;
789;SDS011;378;48.844;9.156;2022-12-11T02:01:18;36.70;;;17.17;;
789;SDS011;378;48.844;9.156;2022-12-11T02:03:50;36.00;;;16.70;;
789;SDS011;378;48.844;9.156;2022-12-11T02:06:32;37.57;;;16.47;;
789;SDS011;378;48.844;9.156;2022-12-11T02:09:01;36.10;;;16.20;;
789;SDS011;378;48.844;9.156;2022-12-11T02:11:33;35.50;;;15.70;;
789;SDS011;378;48.844;9.156;2022-12-11T02:14:08;33.87;;;15.57;;
789;SDS011;378;48.844;9.156;2022-12-11T02:16:42;34.83;;;15.33;;
789;SDS011;378;48.844;9.156;2022-12-11T02:19:17;39.28;;;19.73;;
789;SDS011;378;48.844;9.156;2022-12-11T02:22:05;34.73;;;15.87;;
789;SDS011;378;48.844;9.156;2022-12-11T02:24:42;33.67;;;15.83;;
789;SDS011;378;48.844;9.156;2022-12-11T02:27:22;33.47;;;15.97;;
789;SDS011;378;48.844;9.156;2022-12-11T02:29:58;33.87;;;16.00;;
789;SDS011;378;48.844;9.156;2022-12-11T02:32:29;29.97;;;15.30;;
789;SDS011;378;48.844;9.156;2022-12-11T02:35:02;31.17;;;14.47;;
789;SDS011;378;48.844;9.156;2022-12-11T02:37:34;32.73;;;15.43;;
789;SDS011;378;48.844;9.156;2022-12-11T02:40:06;38.17;;;15.43;;
789;SDS011;378;48.844;9.156;2022-12-11T02:42:36;35.27;;;15.73;;
789;SDS011;378;48.844;9.156;2022-12-11T02:45:07;37.87;;;15.57;;
789;SDS011;378;48.844;9.156;2022-12-11T02:47:35;34.80;;;15.73;;
789;SDS011;378;48.844;9.156;2022-12-11T02:50:05;30.03;;;13.80;;
789;SDS011;378;48.844;9.156;2022-12-11T02:52:36;30.70;;;14.50;;
789;SDS011;378;48.844;9.156;2022-12-11T02:55:06;38.20;;;16.57;;
789;SDS011;378;48.844;9.156;2022-12-11T02:57:37;29.93;;;15.13;;
789;SDS011;378;48.844;9.156;2022-12-11T03:00:09;35.37;;;14.93;;
789;SDS011;378;48.844;9.156;2022-12-11T03:02:37;32.63;;;14.40;;
789;SDS011;378;48.844;9.156;2022-12-11T03:05:05;30.97;;;14.20;;
789;SDS011;378;48.844;9.156;2022-12-11T03:07:33;28.53;;;13.73;;
789;SDS011;378;48.844;9.156;2022-12-11T03:10:02;31.50;;;14.20;;
789;SDS011;378;48.844;9.156;2022-12-11T03:12:30;27.83;;;13.53;;
789;SDS011;378;48.844;9.156;2022-12-11T03:15:01;30.57;;;13.60;;
789;SDS011;378;48.844;9.156;2022-12-11T03:17:33;30.50;;;14.27;;
789;SDS011;378;48.844;9.156;2022-12-11T03:20:09;26.20;;;13.40;;
789;SDS011;378;48.844;9.156;2022-12-11T03:22:44;31.83;;;14.43;;
789;SDS011;378;48.844;9.156;2022-12-11T03:25:15;33.33;;;14.77;;
789;SDS011;378;48.844;9.156;2022-12-11T03:27:46;30.37;;;14.10;;
789;SDS011;378;48.844;9.156;2022-12-11T03:30:21;36.58;;;18.73;;
789;SDS011;378;48.844;9.156;2022-12-11T03:32:52;33.80;;;15.53;;
789;SDS011;378;48.844;9.156;2022-12-11T03:35:23;32.47;;;14.90;;
789;SDS011;378;48.844;9.156;2022-12-11T03:37:53;33.87;;;15.03;;
789;SDS011;378;48.844;9.156;2022-12-11T03:40:22;35.80;;;16.95;;
789;SDS011;378;48.844;9.156;2022-12-11T03:42:52;36.37;;;16.87;;
789;SDS011;378;48.844;9.156;2022-12-11T03:45:22;33.77;;;16.10;;
789;SDS011;378;48.844;9.156;2022-12-11T03:47:52;36.73;;;15.30;;
789;SDS011;378;48.844;9.156;2022-12-11T03:50:21;31.40;;;15.27;;
789;SDS011;378;48.844;9.156;2022-12-11T03:52:51;31.67;;;14.43;;
789;SDS011;378;48.844;9.156;2022-12-11T03:55:18;30.07;;;14.23;;
789;SDS011;378;48.844;9.156;2022-12-11T03:57:47;32.60;;;14.77;;
789;SDS011;378;48.844;9.156;2022-12-11T04:00:16;29.27;;;14.63;;
789;SDS011;378;48.844;9.156;2022-12-11T04:02:44;31.50;;;14.57;;
789;SDS011;378;48.844;9.156;2022-12-11T04:05:33;40.33;;;20.70;;
789;SDS011;378;48.844;9.156;2022-12-11T04:08:00;33.90;;;16.73;;
789;SDS011;378;48.844;9.156;2022-12-11T04:10:27;33.13;;;15.20;;
789;SDS011;378;48.844;9.156;2022-12-11T04:12:54;31.67;;;14.70;;
789;SDS011;378;48.844;9.156;2022-12-11T04:15:21;34.37;;;15.53;;
789;SDS011;378;48.844;9.156;2022-12-11T04:17:47;29.63;;;14.27;;
789;SDS011;378;48.844;9.156;2022-12-11T04:20:31;33.13;;;15.40;;
789;SDS011;378;48.844;9.156;2022-12-11T04:23:17;30.20;;;14.53;;
789;SDS011;378;48.844;9.156;2022-12-11T04:26:03;31.67;;;14.40;;
789;SDS011;378;48.844;9.156;2022-12-11T04:28:31;30.80;;;14.97;;
789;SDS011;378;48.844;9.156;2022-12-11T04:30:58;37.77;;;15.77;;
789;SDS011;378;48.844;9.156;2022-12-11T04:33:24;33.50;;;14.97;;
789;SDS011;378;48.844;9.156;2022-12-11T04:35:53;33.17;;;15.33;;
789;SDS011;378;48.844;9.156;2022-12-11T04:38:22;31.07;;;14.50;;
789;SDS011;378;48.844;9.156;2022-12-11T04:40:49;29.00;;;13.37;;
789;SDS011;378;48.844;9.156;2022-12-11T04:43:22;28.73;;;13.37;;
789;SDS011;378;48.844;9.156;2022-12-11T04:45:48;31.43;;;13.97;;
789;SDS011;378;48.844;9.156;2022-12-11T04:48:15;27.70;;;12.90;;
789;SDS011;378;48.844;9.156;2022-12-11T04:50:42;30.90;;;14.52;;
789;SDS011;378;48.844;9.156;2022-12-11T04:53:11;25.07;;;12.57;;
789;SDS011;378;48.844;9.156;2022-12-11T04:55:37;29.53;;;12.67;;
789;SDS011;378;48.844;9.156;2022-12-11T04:58:04;29.93;;;13.40;;
789;SDS011;378;48.844;9.156;2022-12-11T05:00:31;28.60;;;12.77;;
789;SDS011;378;48.844;9.156;2022-12-11T05:02:58;26.33;;;13.07;;
789;SDS011;378;48.844;9.156;2022-12-11T05:05:25;30.10;;;13.30;;
789;SDS011;378;48.844;9.156;2022-12-11T05:07:52;24.83;;;12.93;;
789;SDS011;378;48.844;9.156;2022-12-11T05:10:20;26.80;;;13.00;;
789;SDS011;378;48.844;9.156;2022-12-11T05:12:47;31.27;;;15.88;;
789;SDS011;378;48.844;9.156;2022-12-11T05:15:14;25.53;;;12.40;;
789;SDS011;378;48.844;9.156;2022-12-11T05:17:41;22.73;;;12.20;;
789;SDS011;378;48.844;9.156;2022-12-11T05:20:08;27.50;;;12.90;;
789;SDS011;378;48.844;9.156;2022-12-11T05:22:35;29.80;;;13.23;;
789;SDS011;378;48.844;9.156;2022-12-11T05:25:03;31.30;;;13.17;;
789;SDS011;378;48.844;9.156;2022-12-11T05:27:32;31.60;;;14.10;;
789;SDS011;378;48.844;9.156;2022-12-11T05:29:59;31.60;;;13.93;;
789;SDS011;378;48.844;9.156;2022-12-11T05:32:26;27.37;;;13.10;;
789;SDS011;378;48.844;9.156;2022-12-11T05:34:53;30.53;;;13.13;;
789;SDS011;378;48.844;9.156;2022-12-11T05:37:20;30.57;;;13.27;;
789;SDS011;378;48.844;9.156;2022-12-11T05:39:47;32.67;;;13.77;;
789;SDS011;378;48.844;9.156;2022-12-11T05:42:14;28.87;;;13.37;;
789;SDS011;378;48.844;9.156;2022-12-11T05:44:42;37.80;;;18.60;;
789;SDS011;378;48.844;9.156;2022-12-11T05:47:09;33.33;;;16.07;;
789;SDS011;378;48.844;9.156;2022-12-11T05:49:36;32.80;;;15.53;;
789;SDS011;378;48.844;9.156;2022-12-11T05:52:03;35.70;;;15.00;;
789;SDS011;378;48.844;9.156;2022-12-11T05:54:30;36.43;;;16.20;;
789;SDS011;378;48.844;9.156;2022-12-11T05:56:56;39.80;;;19.75;;
789;SDS011;378;48.844;9.156;2022-12-11T05:59:23;39.37;;;16.87;;
789;SDS011;378;48.844;9.156;2022-12-11T06:01:51;39.33;;;17.07;;
789;SDS011;378;48.844;9.156;2022-12-11T06:04:18;40.63;;;18.23;;
789;SDS011;378;48.844;9.156;2022-12-11T06:06:45;44.93;;;18.00;;
789;SDS011;378;48.844;9.156;2022-12-11T06:09:12;40.47;;;17.10;;
789;SDS011;378;48.844;9.156;2022-12-11T06:11:40;43.30;;;18.43;;
789;SDS011;378;48.844;9.156;2022-12-11T06:14:08;45.30;;;18.33;;
789;SDS011;378;48.844;9.156;2022-12-11T06:16:36;47.13;;;21.65;;
789;SDS011;378;48.844;9.156;2022-12-11T06:19:04;42.93;;;18.53;;
789;SDS011;378;48.844;9.156;2022-12-11T06:21:31;40.90;;;18.30;;
789;SDS011;378;48.844;9.156;2022-12-11T06:23:59;41.87;;;18.03;;
789;SDS011;378;48.844;9.156;2022-12-11T06:26:27;40.47;;;17.33;;
789;SDS011;378;48.844;9.156;2022-12-11T06:28:56;53.42;;;23.48;;
789;SDS011;378;48.844;9.156;2022-12-11T06:31:23;47.80;;;19.60;;
789;SDS011;378;48.844;9.156;2022-12-11T06:33:50;40.87;;;18.60;;
789;SDS011;378;48.844;9.156;2022-12-11T06:36:18;45.77;;;17.73;;
789;SDS011;378;48.844;9.156;2022-12-11T06:38:47;40.07;;;16.57;;
789;SDS011;378;48.844;9.156;2022-12-11T06:41:15;41.27;;;17.73;;
789;SDS011;378;48.844;9.156;2022-12-11T06:43:42;40.50;;;17.53;;
789;SDS011;378;48.844;9.156;2022-12-11T06:46:10;45.43;;;18.40;;
789;SDS011;378;48.844;9.156;2022-12-11T06:48:38;45.70;;;19.85;;
789;SDS011;378;48.844;9.156;2022-12-11T06:51:06;48.47;;;18.17;;
789;SDS011;378;48.844;9.156;2022-12-11T06:53:36;41.00;;;16.57;;
789;SDS011;378;48.844;9.156;2022-12-11T06:56:04;36.93;;;16.40;;
789;SDS011;378;48.844;9.156;2022-12-11T06:58:33;39.17;;;16.73;;
789;SDS011;378;48.844;9.156;2022-12-11T07:01:00;46.40;;;20.10;;
789;SDS011;378;48.844;9.156;2022-12-11T07:03:27;42.27;;;18.33;;
789;SDS011;378;48.844;9.156;2022-12-11T07:05:58;42.03;;;17.07;;
789;SDS011;378;48.844;9.156;2022-12-11T07:08:26;36.03;;;15.70;;
789;SDS011;378;48.844;9.156;2022-12-11T07:10:54;34.97;;;15.70;;
789;SDS011;378;48.844;9.156;2022-12-11T07:13:27;39.73;;;16.63;;
789;SDS011;378;48.844;9.156;2022-12-11T07:15:53;38.77;;;15.67;;
789;SDS011;378;48.844;9.156;2022-12-11T07:18:22;40.70;;;15.57;;
789;SDS011;378;48.844;9.156;2022-12-11T07:20:49;34.50;;;14.90;;
789;SDS011;378;48.844;9.156;2022-12-11T07:23:16;38.90;;;16.00;;
789;SDS011;378;48.844;9.156;2022-12-11T07:25:43;35.03;;;14.90;;
789;SDS011;378;48.844;9.156;2022-12-11T07:28:11;33.53;;;15.20;;
789;SDS011;378;48.844;9.156;2022-12-11T07:30:38;33.20;;;13.93;;
789;SDS011;378;48.844;9.156;2022-12-11T07:33:05;38.45;;;16.88;;
789;SDS011;378;48.844;9.156;2022-12-11T07:35:33;33.13;;;14.77;;
789;SDS011;378;48.844;9.156;2022-12-11T07:38:00;30.77;;;13.43;;
789;SDS011;378;48.844;9.156;2022-12-11T07:40:27;34.37;;;14.13;;
789;SDS011;378;48.844;9.156;2022-12-11T07:42:54;30.17;;;13.77;;
789;SDS011;378;48.844;9.156;2022-12-11T07:45:22;31.03;;;13.83;;
789;SDS011;378;48.844;9.156;2022-12-11T07:47:50;27.70;;;13.73;;
789;SDS011;378;48.844;9.156;2022-12-11T07:50:17;29.43;;;13.47;;
789;SDS011;378;48.844;9.156;2022-12-11T07:52:44;27.53;;;12.37;;
789;SDS011;378;48.844;9.156;2022-12-11T07:55:11;28.30;;;13.13;;
789;SDS011;378;48.844;9.156;2022-12-11T07:57:38;33.17;;;14.57;;
789;SDS011;378;48.844;9.156;2022-12-11T08:00:05;34.20;;;14.63;;
789;SDS011;378;48.844;9.156;2022-12-11T08:02:35;28.10;;;12.73;;
789;SDS011;378;48.844;9.156;2022-12-11T08:05:03;28.60;;;13.40;;
789;SDS011;378;48.844;9.156;2022-12-11T08:07:32;27.70;;;13.10;;
789;SDS011;378;48.844;9.156;2022-12-11T08:09:59;32.70;;;15.88;;
789;SDS011;378;48.844;9.156;2022-12-11T08:12:26;30.37;;;14.03;;
789;SDS011;378;48.844;9.156;2022-12-11T08:14:53;29.47;;;13.60;;
789;SDS011;378;48.844;9.156;2022-12-11T08:17:20;25.57;;;12.43;;
789;SDS011;378;48.844;9.156;2022-12-11T08:19:48;29.63;;;13.60;;
789;SDS011;378;48.844;9.156;2022-12-11T08:22:15;28.43;;;13.60;;
789;SDS011;378;48.844;9.156;2022-12-11T08:24:41;29.30;;;13.40;;
789;SDS011;378;48.844;9.156;2022-12-11T08:27:08;30.27;;;14.00;;
789;SDS011;378;48.844;9.156;2022-12-11T08:29:35;32.83;;;13.47;;
789;SDS011;378;48.844;9.156;2022-12-11T08:32:02;30.80;;;14.20;;
789;SDS011;378;48.844;9.156;2022-12-11T08:34:29;35.90;;;18.65;;
789;SDS011;378;48.844;9.156;2022-12-11T08:36:57;31.40;;;15.03;;
789;SDS011;378;48.844;9.156;2022-12-11T08:39:24;34.97;;;15.90;;
789;SDS011;378;48.844;9.156;2022-12-11T08:41:52;31.87;;;14.63;;
789;SDS011;378;48.844;9.156;2022-12-11T08:44:18;31.77;;;14.90;;
789;SDS011;378;48.844;9.156;2022-12-11T08:46:48;36.67;;;14.90;;
789;SDS011;378;48.844;9.156;2022-12-11T08:49:15;31.87;;;14.33;;
789;SDS011;378;48.844;9.156;2022-12-11T08:51:42;36.73;;;14.87;;
789;SDS011;378;48.844;9.156;2022-12-11T08:54:10;37.20;;;15.77;;
789;SDS011;378;48.844;9.156;2022-12-11T08:56:37;38.03;;;15.07;;
789;SDS011;378;48.844;9.156;2022-12-11T08:59:04;32.03;;;14.40;;
789;SDS011;378;48.844;9.156;2022-12-11T09:01:31;31.63;;;15.03;;
789;SDS011;378;48.844;9.156;2022-12-11T09:03:58;37.60;;;15.17;;
789;SDS011;378;48.844;9.156;2022-12-11T09:06:25;33.97;;;15.07;;
789;SDS011;378;48.844;9.156;2022-12-11T09:08:53;30.10;;;13.43;;
789;SDS011;378;48.844;9.156;2022-12-11T09:11:23;31.93;;;13.53;;
789;SDS011;378;48.844;9.156;2022-12-11T09:13:52;29.80;;;14.77;;
789;SDS011;378;48.844;9.156;2022-12-11T09:16:20;29.07;;;13.53;;
789;SDS011;378;48.844;9.156;2022-12-11T09:18:49;33.27;;;17.53;;
789;SDS011;378;48.844;9.156;2022-12-11T09:21:18;30.73;;;14.53;;
789;SDS011;378;48.844;9.156;2022-12-11T09:23:45;36.77;;;14.97;;
789;SDS011;378;48.844;9.156;2022-12-11T09:26:14;27.87;;;13.47;;
789;SDS011;378;48.844;9.156;2022-12-11T09:28:44;27.37;;;13.10;;
789;SDS011;378;48.844;9.156;2022-12-11T09:31:12;28.63;;;13.13;;
789;SDS011;378;48.844;9.156;2022-12-11T09:33:40;27.27;;;12.80;;
789;SDS011;378;48.844;9.156;2022-12-11T09:36:08;22.60;;;12.03;;
789;SDS011;378;48.844;9.156;2022-12-11T09:38:36;22.73;;;11.87;;
789;SDS011;378;48.844;9.156;2022-12-11T09:41:10;25.73;;;12.33;;
789;SDS011;378;48.844;9.156;2022-12-11T09:43:58;24.33;;;11.67;;
789;SDS011;378;48.844;9.156;2022-12-11T09:46:32;26.63;;;11.97;;
789;SDS011;378;48.844;9.156;2022-12-11T09:49:00;26.67;;;12.47;;
789;SDS011;378;48.844;9.156;2022-12-11T09:51:32;26.83;;;12.70;;
789;SDS011;378;48.844;9.156;2022-12-11T09:54:04;34.37;;;16.43;;
789;SDS011;378;48.844;9.156;2022-12-11T09:56:32;31.87;;;15.00;;
789;SDS011;378;48.844;9.156;2022-12-11T09:59:04;30.60;;;13.57;;
789;SDS011;378;48.844;9.156;2022-12-11T10:01:40;25.37;;;12.10;;
789;SDS011;378;48.844;9.156;2022-12-11T10:04:23;28.00;;;13.53;;
789;SDS011;378;48.844;9.156;2022-12-11T10:07:04;28.40;;;13.03;;
789;SDS011;378;48.844;9.156;2022-12-11T10:09:38;29.50;;;13.33;;
789;SDS011;378;48.844;9.156;2022-12-11T10:12:15;27.87;;;13.47;;
789;SDS011;378;48.844;9.156;2022-12-11T10:14:54;22.93;;;11.53;;
789;SDS011;378;48.844;9.156;2022-12-11T10:17:38;23.20;;;11.63;;
789;SDS011;378;48.844;9.156;2022-12-11T10:20:14;28.80;;;13.20;;
789;SDS011;378;48.844;9.156;2022-12-11T10:22:47;33.37;;;15.00;;
789;SDS011;378;48.844;9.156;2022-12-11T10:25:17;27.73;;;14.17;;
789;SDS011;378;48.844;9.156;2022-12-11T10:27:46;31.37;;;15.03;;
789;SDS011;378;48.844;9.156;2022-12-11T10:30:16;31.00;;;14.33;;
789;SDS011;378;48.844;9.156;2022-12-11T10:32:48;32.67;;;14.40;;
789;SDS011;378;48.844;9.156;2022-12-11T10:35:19;37.63;;;14.57;;
789;SDS011;378;48.844;9.156;2022-12-11T10:37:54;39.13;;;19.98;;
789;SDS011;378;48.844;9.156;2022-12-11T10:40:23;33.77;;;16.43;;
789;SDS011;378;48.844;9.156;2022-12-11T10:42:51;30.83;;;15.43;;
789;SDS011;378;48.844;9.156;2022-12-11T10:45:20;36.70;;;17.60;;
789;SDS011;378;48.844;9.156;2022-12-11T10:47:46;37.30;;;20.05;;
789;SDS011;378;48.844;9.156;2022-12-11T10:50:20;35.90;;;18.40;;
789;SDS011;378;48.844;9.156;2022-12-11T10:52:48;33.57;;;15.87;;
789;SDS011;378;48.844;9.156;2022-12-11T10:55:16;30.90;;;15.20;;
789;SDS011;378;48.844;9.156;2022-12-11T10:57:52;29.80;;;15.00;;
789;SDS011;378;48.844;9.156;2022-12-11T11:00:28;34.97;;;16.47;;
789;SDS011;378;48.844;9.156;2022-12-11T11:03:01;37.83;;;16.77;;
789;SDS011;378;48.844;9.156;2022-12-11T11:05:29;30.23;;;14.27;;
789;SDS011;378;48.844;9.156;2022-12-11T11:08:02;32.90;;;13.80;;
789;SDS011;378;48.844;9.156;2022-12-11T11:10:37;30.80;;;13.37;;
789;SDS011;378;48.844;9.156;2022-12-11T11:13:15;27.67;;;13.90;;
789;SDS011;378;48.844;9.156;2022-12-11T11:15:43;27.57;;;13.13;;
789;SDS011;378;48.844;9.156;2022-12-11T11:18:11;30.03;;;14.07;;
789;SDS011;378;48.844;9.156;2022-12-11T11:20:47;38.13;;;18.10;;
789;SDS011;378;48.844;9.156;2022-12-11T11:23:14;31.90;;;16.13;;
789;SDS011;378;48.844;9.156;2022-12-11T11:25:47;29.60;;;14.63;;
789;SDS011;378;48.844;9.156;2022-12-11T11:28:17;26.83;;;13.63;;
789;SDS011;378;48.844;9.156;2022-12-11T11:30:58;29.07;;;13.17;;
789;SDS011;378;48.844;9.156;2022-12-11T11:33:28;27.60;;;13.17;;
789;SDS011;378;48.844;9.156;2022-12-11T11:35:56;29.52;;;16.35;;
789;SDS011;378;48.844;9.156;2022-12-11T11:38:27;27.90;;;14.20;;
789;SDS011;378;48.844;9.156;2022-12-11T11:40:57;30.27;;;14.88;;
789;SDS011;378;48.844;9.156;2022-12-11T11:43:31;29.03;;;14.13;;
789;SDS011;378;48.844;9.156;2022-12-11T11:46:05;27.57;;;13.17;;
789;SDS011;378;48.844;9.156;2022-12-11T11:48:38;28.53;;;13.20;;
789;SDS011;378;48.844;9.156;2022-12-11T11:51:12;27.80;;;13.13;;
789;SDS011;378;48.844;9.156;2022-12-11T11:53:40;28.10;;;13.90;;
789;SDS011;378;48.844;9.156;2022-12-11T11:56:16;25.30;;;12.70;;
789;SDS011;378;48.844;9.156;2022-12-11T11:58:49;32.57;;;13.67;;
789;SDS011;378;48.844;9.156;2022-12-11T12:01:27;30.13;;;13.33;;
789;SDS011;378;48.844;9.156;2022-12-11T12:03:56;27.60;;;14.47;;
789;SDS011;378;48.844;9.156;2022-12-11T12:06:27;30.63;;;15.27;;
789;SDS011;378;48.844;9.156;2022-12-11T12:09:06;30.90;;;14.37;;
789;SDS011;378;48.844;9.156;2022-12-11T12:11:44;34.20;;;18.13;;
789;SDS011;378;48.844;9.156;2022-12-11T12:14:19;32.33;;;15.73;;
789;SDS011;378;48.844;9.156;2022-12-11T12:16:53;28.10;;;14.10;;
789;SDS011;378;48.844;9.156;2022-12-11T12:19:40;30.63;;;13.83;;
789;SDS011;378;48.844;9.156;2022-12-11T12:22:16;32.23;;;13.67;;
789;SDS011;378;48.844;9.156;2022-12-11T12:24:54;31.37;;;15.13;;
789;SDS011;378;48.844;9.156;2022-12-11T12:27:29;32.30;;;13.87;;
789;SDS011;378;48.844;9.156;2022-12-11T12:30:02;28.43;;;13.10;;
789;SDS011;378;48.844;9.156;2022-12-11T12:32:35;27.53;;;13.37;;
789;SDS011;378;48.844;9.156;2022-12-11T12:35:24;31.60;;;14.63;;
789;SDS011;378;48.844;9.156;2022-12-11T12:38:01;30.17;;;14.77;;
789;SDS011;378;48.844;9.156;2022-12-11T12:40:35;34.93;;;14.87;;
789;SDS011;378;48.844;9.156;2022-12-11T12:43:21;38.43;;;15.97;;
789;SDS011;378;48.844;9.156;2022-12-11T12:46:13;26.50;;;12.63;;
789;SDS011;378;48.844;9.156;2022-12-11T12:48:54;30.67;;;12.83;;
789;SDS011;378;48.844;9.156;2022-12-11T12:51:23;35.83;;;14.00;;
789;SDS011;378;48.844;9.156;2022-12-11T12:53:53;37.03;;;16.00;;
789;SDS011;378;48.844;9.156;2022-12-11T12:56:23;33.07;;;16.17;;
789;SDS011;378;48.844;9.156;2022-12-11T12:58:51;31.50;;;15.33;;
789;SDS011;378;48.844;9.156;2022-12-11T13:01:18;28.87;;;13.50;;
789;SDS011;378;48.844;9.156;2022-12-11T13:03:49;28.30;;;12.93;;
789;SDS011;378;48.844;9.156;2022-12-11T13:06:28;32.23;;;14.10;;
789;SDS011;378;48.844;9.156;2022-12-11T13:09:08;43.60;;;19.63;;
789;SDS011;378;48.844;9.156;2022-12-11T13:11:37;60.07;;;26.00;;
789;SDS011;378;48.844;9.156;2022-12-11T13:14:05;47.97;;;22.73;;
789;SDS011;378;48.844;9.156;2022-12-11T13:16:34;40.97;;;18.27;;
789;SDS011;378;48.844;9.156;2022-12-11T13:19:05;36.30;;;15.87;;
789;SDS011;378;48.844;9.156;2022-12-11T13:21:53;36.27;;;15.90;;
789;SDS011;378;48.844;9.156;2022-12-11T13:24:23;39.47;;;15.37;;
789;SDS011;378;48.844;9.156;2022-12-11T13:26:51;40.40;;;16.43;;
789;SDS011;378;48.844;9.156;2022-12-11T13:29:28;34.13;;;15.20;;
789;SDS011;378;48.844;9.156;2022-12-11T13:32:01;36.45;;;16.73;;
789;SDS011;378;48.844;9.156;2022-12-11T13:34:31;39.50;;;16.10;;
789;SDS011;378;48.844;9.156;2022-12-11T13:37:02;34.67;;;15.40;;
789;SDS011;378;48.844;9.156;2022-12-11T13:39:30;37.63;;;16.07;;
789;SDS011;378;48.844;9.156;2022-12-11T13:42:00;37.35;;;15.90;;
789;SDS011;378;48.844;9.156;2022-12-11T13:44:28;38.67;;;16.37;;
789;SDS011;378;48.844;9.156;2022-12-11T13:46:57;35.83;;;15.70;;
789;SDS011;378;48.844;9.156;2022-12-11T13:49:27;39.20;;;16.60;;
789;SDS011;378;48.844;9.156;2022-12-11T13:51:56;44.37;;;16.50;;
789;SDS011;378;48.844;9.156;2022-12-11T13:54:27;42.87;;;17.53;;
789;SDS011;378;48.844;9.156;2022-12-11T13:56:56;45.53;;;17.40;;
789;SDS011;378;48.844;9.156;2022-12-11T13:59:27;32.80;;;15.17;;
789;SDS011;378;48.844;9.156;2022-12-11T14:01:57;36.70;;;15.90;;
789;SDS011;378;48.844;9.156;2022-12-11T14:04:27;40.23;;;16.33;;
789;SDS011;378;48.844;9.156;2022-12-11T14:06:56;38.30;;;16.90;;
789;SDS011;378;48.844;9.156;2022-12-11T14:09:25;33.97;;;15.63;;
789;SDS011;378;48.844;9.156;2022-12-11T14:11:53;35.07;;;15.23;;
789;SDS011;378;48.844;9.156;2022-12-11T14:14:24;45.20;;;21.65;;
789;SDS011;378;48.844;9.156;2022-12-11T14:16:59;42.10;;;18.50;;
789;SDS011;378;48.844;9.156;2022-12-11T14:19:26;37.97;;;16.27;;
789;SDS011;378;48.844;9.156;2022-12-11T14:21:54;41.23;;;17.10;;
789;SDS011;378;48.844;9.156;2022-12-11T14:24:27;48.78;;;20.52;;
789;SDS011;378;48.844;9.156;2022-12-11T14:26:55;41.67;;;18.23;;
789;SDS011;378;48.844;9.156;2022-12-11T14:29:23;43.93;;;18.33;;
789;SDS011;378;48.844;9.156;2022-12-11T14:31:51;48.17;;;19.47;;
789;SDS011;378;48.844;9.156;2022-12-11T14:34:20;56.20;;;22.57;;
789;SDS011;378;48.844;9.156;2022-12-11T14:36:50;49.37;;;19.70;;
789;SDS011;378;48.844;9.156;2022-12-11T14:39:18;46.43;;;19.90;;
789;SDS011;378;48.844;9.156;2022-12-11T14:41:51;58.83;;;23.93;;
789;SDS011;378;48.844;9.156;2022-12-11T14:44:22;56.80;;;22.13;;
789;SDS011;378;48.844;9.156;2022-12-11T14:46:53;67.17;;;24.33;;
789;SDS011;378;48.844;9.156;2022-12-11T14:49:26;60.40;;;24.23;;
789;SDS011;378;48.844;9.156;2022-12-11T14:51:58;56.77;;;23.87;;
789;SDS011;378;48.844;9.156;2022-12-11T14:54:26;47.77;;;19.83;;
789;SDS011;378;48.844;9.156;2022-12-11T14:56:58;48.43;;;19.97;;
789;SDS011;378;48.844;9.156;2022-12-11T14:59:30;63.73;;;24.93;;
789;SDS011;378;48.844;9.156;2022-12-11T15:02:00;63.80;;;23.40;;
789;SDS011;378;48.844;9.156;2022-12-11T15:04:43;51.60;;;20.87;;
789;SDS011;378;48.844;9.156;2022-12-11T15:07:15;46.23;;;18.13;;
789;SDS011;378;48.844;9.156;2022-12-11T15:09:45;44.67;;;17.33;;
789;SDS011;378;48.844;9.156;2022-12-11T15:12:14;45.10;;;19.23;;
789;SDS011;378;48.844;9.156;2022-12-11T15:14:43;60.80;;;22.47;;
789;SDS011;378;48.844;9.156;2022-12-11T15:17:14;69.47;;;24.57;;
789;SDS011;378;48.844;9.156;2022-12-11T15:19:44;55.97;;;21.33;;
789;SDS011;378;48.844;9.156;2022-12-11T15:22:15;48.10;;;18.73;;
789;SDS011;378;48.844;9.156;2022-12-11T15:24:43;46.63;;;19.50;;
789;SDS011;378;48.844;9.156;2022-12-11T15:27:19;58.78;;;23.75;;
789;SDS011;378;48.844;9.156;2022-12-11T15:29:50;46.57;;;20.07;;
789;SDS011;378;48.844;9.156;2022-12-11T15:32:18;47.23;;;19.77;;
789;SDS011;378;48.844;9.156;2022-12-11T15:34:46;55.60;;;21.10;;